Time;durP1;ratioP1;P1;durP2;ratioP2;P2;SDS_P1;SDS_P2;PMS_P1;PMS_P2;Temp;Humidity;BMP_temperature;BMP_pressure;BME280_temperature;BME280_humidity;BME280_pressure;Samples;Min_cycle;Max_cycle;Signal;HPM_P1;HPM_P2
2023/06/01 00:00:19;;;;;;;25.38;16.55;;;15.90;99.90;;;16.26;74.78;102314.84;5081389;28;20401;-67
2023/06/01 00:02:49;;;;;;;24.38;16.27;;;15.90;99.90;;;16.32;74.76;102314.81;5084467;28;20131;-67
2023/06/01 00:05:19;;;;;;;23.20;16.40;;;16.00;99.90;;;16.30;74.82;102316.59;5076988;28;20053;-67
2023/06/01 00:07:48;;;;;;;25.30;16.60;;;15.90;99.90;;;16.33;74.47;102308.59;5083612;28;20047;-66
2023/06/01 00:10:16;;;;;;;22.65;15.85;;;16.00;99.90;;;16.26;74.66;102309.50;5081770;28;20551;-66
2023/06/01 00:12:45;;;;;;;23.95;15.75;;;16.00;99.90;;;16.24;74.64;102304.19;5082885;28;20048;-67
2023/06/01 00:15:13;;;;;;;28.42;16.33;;;15.90;99.90;;;16.21;74.46;102316.66;5080405;28;20086;-66
2023/06/01 00:17:41;;;;;;;20.45;15.57;;;15.90;99.90;;;16.06;74.72;102314.06;5090214;28;20044;-66
2023/06/01 00:20:11;;;;;;;26.50;15.63;;;15.70;99.90;;;15.94;75.01;102304.31;5081551;28;20060;-66
2023/06/01 00:22:42;;;;;;;25.27;15.70;;;15.70;99.90;;;15.89;75.41;102315.91;5083946;28;20055;-66
2023/06/01 00:25:11;;;;;;;22.60;15.35;;;15.60;99.90;;;15.97;75.18;102317.63;5076574;28;20501;-66
2023/06/01 00:27:40;;;;;;;21.40;14.80;;;15.60;99.90;;;15.81;75.24;102307.94;5083794;28;20126;-66
2023/06/01 00:30:10;;;;;;;23.27;16.10;;;15.50;99.90;;;15.88;75.61;102309.66;5096786;28;20067;-67
2023/06/01 00:32:38;;;;;;;23.10;14.93;;;15.50;99.90;;;15.84;75.50;102317.69;5082815;28;20055;-67
2023/06/01 00:35:08;;;;;;;22.90;15.05;;;15.50;99.90;;;15.80;75.44;102302.56;5082093;28;20044;-67
2023/06/01 00:37:36;;;;;;;23.10;15.40;;;15.50;99.90;;;15.80;75.56;102306.13;5081953;28;20055;-66
2023/06/01 00:40:07;;;;;;;22.33;14.57;;;15.40;99.90;;;15.84;75.10;102305.22;5100729;28;20121;-66
2023/06/01 00:42:36;;;;;;;18.83;13.80;;;15.50;99.90;;;15.85;75.05;102293.66;5085196;28;20048;-67
2023/06/01 00:45:06;;;;;;;18.80;13.57;;;15.50;99.90;;;15.74;75.08;102299.91;5080217;28;20048;-67
2023/06/01 00:47:41;;;;;;;22.17;13.32;;;15.40;99.90;;;15.60;75.44;102270.59;5081346;28;20056;-67
2023/06/01 00:50:11;;;;;;;18.13;12.77;;;15.40;99.90;;;15.85;74.96;102301.66;5085316;28;20051;-66
2023/06/01 00:52:41;;;;;;;21.98;12.68;;;15.40;99.90;;;15.82;75.25;102308.78;5085487;28;20496;-67
2023/06/01 00:55:12;;;;;;;23.27;13.10;;;15.50;99.90;;;15.79;75.14;102303.47;5085135;28;20037;-66
2023/06/01 00:57:42;;;;;;;16.30;12.52;;;15.40;99.90;;;15.85;75.31;102309.66;5087788;28;20270;-66
2023/06/01 01:00:12;;;;;;;17.13;11.27;;;15.50;99.90;;;15.75;75.29;102288.38;5079787;28;20448;-66
2023/06/01 01:02:44;;;;;;;17.27;12.27;;;15.50;99.90;;;15.83;75.12;102306.09;5087406;28;20047;-66
2023/06/01 01:05:12;;;;;;;16.58;11.32;;;15.50;99.90;;;15.85;75.32;102307.00;5085595;28;20056;-67
2023/06/01 01:07:57;;;;;;;20.05;11.48;;;15.50;99.90;;;15.92;75.18;102310.53;5118570;27;20781;-67
2023/06/01 01:10:34;;;;;;;16.73;11.45;;;15.50;99.90;;;15.93;75.06;102305.19;5081466;28;20390;-67
2023/06/01 01:13:11;;;;;;;20.77;11.63;;;15.60;99.90;;;15.98;74.75;102307.84;5084450;28;20094;-67
2023/06/01 01:15:48;;;;;;;17.67;11.60;;;15.70;99.90;;;15.93;74.45;102304.34;5086399;28;20056;-67
2023/06/01 01:18:23;;;;;;;18.25;12.35;;;15.60;99.90;;;15.86;74.60;102310.56;5082747;28;20784;-67
2023/06/01 01:20:57;;;;;;;22.20;11.38;;;15.60;99.90;;;15.72;74.97;102299.94;5083994;28;20493;-66
2023/06/01 01:23:54;;;;;;;20.80;11.23;;;15.40;99.90;;;15.76;75.15;102304.38;5079918;28;20044;-67
2023/06/01 01:26:43;;;;;;;27.50;11.63;;;15.40;99.90;;;15.71;75.29;102299.94;5082533;28;20044;-67
2023/06/01 01:29:15;;;;;;;15.65;11.80;;;15.40;99.90;;;15.52;75.46;102284.88;5100115;28;20080;-66
2023/06/01 01:31:50;;;;;;;19.45;11.90;;;15.30;99.90;;;15.59;75.66;102295.53;5116622;27;20048;-66
2023/06/01 01:34:20;;;;;;;19.88;12.38;;;15.30;99.90;;;15.61;75.73;102293.75;5084985;28;20097;-67
2023/06/01 01:36:49;;;;;;;;;;;15.30;99.90;;;15.64;75.80;102301.72;5101754;28;20051;-67
2023/06/01 01:39:17;;;;;;;18.25;12.20;;;15.30;99.90;;;15.59;75.82;102295.53;5117487;27;19924;-67
2023/06/01 01:41:45;;;;;;;17.73;12.93;;;15.30;99.90;;;15.54;75.30;102301.75;5068903;28;20105;-67
2023/06/01 01:44:16;;;;;;;17.77;12.55;;;15.20;99.90;;;15.55;75.67;102295.50;5083999;28;20072;-67
2023/06/01 01:46:53;;;;;;;21.00;13.00;;;15.20;99.90;;;15.44;75.64;102295.56;5087295;28;20079;-68
2023/06/01 01:49:28;;;;;;;23.38;13.60;;;15.10;99.90;;;15.41;76.06;102299.97;5097972;28;20135;-66
2023/06/01 01:52:07;;;;;;;16.60;13.90;;;15.10;99.90;;;15.53;75.89;102291.97;5084053;28;20040;-66
2023/06/01 01:54:40;;;;;;;22.98;14.00;;;15.20;99.90;;;15.56;75.75;102294.66;5080289;28;20474;-67
2023/06/01 01:57:09;;;;;;;18.63;13.38;;;15.30;99.90;;;15.55;76.01;102285.75;5084162;28;20044;-66
2023/06/01 01:59:39;;;;;;;19.65;13.45;;;15.30;99.90;;;15.67;75.63;102290.16;5083798;28;20391;-66
2023/06/01 02:02:08;;;;;;;21.13;13.55;;;15.40;99.90;;;15.71;75.49;102284.81;5082877;28;20063;-66
2023/06/01 02:04:40;;;;;;;21.17;13.20;;;15.40;99.90;;;15.68;75.72;102284.81;5085793;28;20489;-67
2023/06/01 02:07:10;;;;;;;19.95;14.10;;;15.40;99.90;;;15.57;75.67;102256.38;5077885;28;20405;-66
2023/06/01 02:09:40;;;;;;;18.13;13.38;;;15.40;99.90;;;15.80;75.70;102286.56;5084857;28;20473;-66
2023/06/01 02:12:10;;;;;;;24.00;14.27;;;15.50;99.90;;;15.66;76.13;102286.59;5116832;27;20064;-66
2023/06/01 02:14:40;;;;;;;18.88;13.50;;;15.40;99.90;;;15.74;75.97;102279.47;5084864;28;20040;-66
2023/06/01 02:17:08;;;;;;;20.17;13.77;;;15.40;99.90;;;15.75;76.24;102280.34;5067330;28;20044;-67
2023/06/01 02:19:37;;;;;;;25.10;14.85;;;15.40;99.90;;;15.69;75.87;102277.72;5083878;28;20470;-66
2023/06/01 02:22:06;;;;;;;17.00;13.02;;;15.40;99.90;;;15.60;75.83;102278.59;5085654;28;20051;-66
2023/06/01 02:24:34;;;;;;;21.48;14.07;;;15.30;99.90;;;15.68;75.83;102290.16;5082882;28;20457;-67
2023/06/01 02:27:03;;;;;;;20.63;14.68;;;15.40;99.90;;;15.68;75.92;102281.28;5086333;28;20055;-66
2023/06/01 02:29:32;;;;;;;24.73;14.07;;;15.40;99.90;;;15.71;75.83;102283.94;5079026;28;20041;-66
2023/06/01 02:32:01;;;;;;;20.85;13.60;;;15.30;99.90;;;15.64;75.89;102277.72;5085801;28;20101;-66
2023/06/01 02:34:30;;;;;;;19.87;13.77;;;15.30;99.90;;;15.52;76.29;102274.19;5066371;28;20098;-66
2023/06/01 02:36:59;;;;;;;20.67;13.82;;;15.20;99.90;;;15.49;76.55;102274.19;5083172;28;20294;-67
2023/06/01 02:39:27;;;;;;;21.95;13.88;;;15.20;99.90;;;15.37;76.00;102278.63;5084245;28;20047;-67
2023/06/01 02:41:55;;;;;;;21.05;13.18;;;15.10;99.90;;;15.31;76.00;102277.78;5082268;28;20048;-67
2023/06/01 02:44:24;;;;;;;18.83;13.35;;;15.10;99.90;;;15.32;76.15;102280.44;5117620;27;20044;-66
2023/06/01 02:46:52;;;;;;;17.65;12.68;;;15.00;99.90;;;15.39;76.46;102275.94;5083037;28;20048;-66
2023/06/01 02:49:22;;;;;;;22.60;13.90;;;15.10;99.90;;;15.36;76.25;102275.97;5101206;28;20055;-66
2023/06/01 02:51:50;;;;;;;22.27;13.73;;;15.10;99.90;;;15.30;76.05;102271.53;5093949;28;20044;-67
2023/06/01 02:54:20;;;;;;;20.70;12.98;;;15.00;99.90;;;15.34;76.14;102272.41;5100851;28;20111;-67
2023/06/01 02:56:49;;;;;;;19.48;12.15;;;15.00;99.90;;;15.31;75.75;102265.31;5098648;28;20409;-66
2023/06/01 02:59:46;;;;;;;18.15;12.32;;;15.00;99.90;;;15.35;75.96;102267.06;5075472;28;20048;-66
2023/06/01 03:02:15;;;;;;;21.50;12.43;;;15.00;99.90;;;15.39;75.67;102266.19;5098829;28;20489;-66
2023/06/01 03:04:45;;;;;;;17.70;12.23;;;15.00;99.90;;;15.43;75.71;102272.41;5083843;28;20055;-66
2023/06/01 03:07:14;;;;;;;18.05;12.23;;;15.10;99.90;;;15.34;75.52;102264.41;5115751;27;20079;-67
2023/06/01 03:09:51;;;;;;;21.50;12.50;;;15.10;99.90;;;15.17;75.66;102276.88;5094231;28;20501;-66
2023/06/01 03:12:22;;;;;;;25.58;13.65;;;14.80;99.90;;;14.96;75.59;102264.44;5084539;28;20076;-66
2023/06/01 03:14:50;;;;;;;21.02;12.52;;;14.80;99.90;;;15.10;76.34;102276.00;5081585;28;20064;-66
2023/06/01 03:17:18;;;;;;;19.15;12.30;;;14.80;99.90;;;15.14;76.53;102276.88;5083369;28;20051;-66
2023/06/01 03:19:49;;;;;;;22.08;13.35;;;14.80;99.90;;;15.16;76.18;102275.09;5099529;28;20370;-66
2023/06/01 03:22:22;;;;;;;20.55;12.35;;;14.80;99.90;;;15.26;76.04;102279.53;5097656;28;20512;-66
2023/06/01 03:24:51;;;;;;;19.60;12.50;;;14.90;99.90;;;15.17;75.89;102274.22;5100921;28;20055;-67
2023/06/01 03:27:23;;;;;;;21.80;12.60;;;14.80;99.90;;;15.23;76.13;102288.41;5094655;28;20503;-67
2023/06/01 03:29:51;;;;;;;18.77;12.73;;;14.90;99.90;;;15.27;75.69;102282.19;5082569;28;20451;-66
2023/06/01 03:32:20;;;;;;;17.92;12.32;;;14.90;99.90;;;15.27;75.73;102279.53;5081767;28;20059;-67
2023/06/01 03:34:51;;;;;;;19.40;12.50;;;15.00;99.90;;;15.31;75.73;102283.97;5098683;28;20550;-66
2023/06/01 03:37:19;;;;;;;18.67;12.83;;;15.00;99.90;;;15.36;75.60;102276.88;5082478;28;20052;-66
2023/06/01 03:39:49;;;;;;;20.75;12.93;;;15.00;99.90;;;15.25;75.36;102269.78;5097481;28;20044;-66
2023/06/01 03:42:19;;;;;;;24.08;13.05;;;15.00;99.90;;;15.30;75.73;102274.19;5059735;28;20049;-67
2023/06/01 03:44:48;;;;;;;20.67;13.32;;;15.00;99.90;;;15.28;75.78;102261.75;5052372;28;20140;-66
2023/06/01 03:47:16;;;;;;;24.98;14.13;;;15.00;99.90;;;15.31;75.42;102278.63;5116927;27;20080;-67
2023/06/01 03:49:45;;;;;;;20.75;14.10;;;15.00;99.90;;;15.34;75.46;102278.66;5082146;28;20044;-66
2023/06/01 03:52:18;;;;;;;20.60;14.43;;;15.00;99.90;;;15.26;75.64;102275.09;5115980;27;20143;-66
2023/06/01 03:54:46;;;;;;;22.30;14.02;;;15.00;99.90;;;15.32;75.46;102279.53;5081966;28;20079;-66
2023/06/01 03:57:38;;;;;;;28.48;13.85;;;15.00;99.90;;;15.25;75.68;102278.63;5080401;28;20044;-67
2023/06/01 04:00:17;;;;;;;22.02;13.80;;;15.00;99.90;;;15.34;76.01;102283.09;5082620;28;20078;-66
2023/06/01 04:02:55;;;;;;;21.00;13.95;;;15.00;99.90;;;15.33;75.54;102279.53;5079210;28;20052;-67
2023/06/01 04:05:26;;;;;;;20.92;13.55;;;15.00;99.90;;;15.29;75.72;102277.75;5081173;28;20147;-66
2023/06/01 04:07:57;;;;;;;25.63;13.27;;;15.00;99.90;;;15.04;75.66;102278.66;5099088;28;20244;-66
2023/06/01 04:10:25;;;;;;;21.42;13.52;;;14.80;99.90;;;15.00;76.42;102276.88;5081222;28;20072;-67
2023/06/01 04:12:54;;;;;;;19.55;13.13;;;14.70;99.90;;;15.14;76.32;102272.44;5084384;28;20048;-68
2023/06/01 04:15:26;;;;;;;19.38;13.82;;;14.80;99.90;;;15.22;76.22;102286.66;5093429;28;20048;-67
2023/06/01 04:17:54;;;;;;;18.75;13.05;;;14.80;99.90;;;15.25;76.13;102275.09;5098864;28;20094;-67
2023/06/01 04:20:24;;;;;;;22.05;13.63;;;14.90;99.90;;;15.24;76.17;102281.31;5114765;27;20068;-67
2023/06/01 04:22:52;;;;;;;18.83;13.20;;;14.90;99.90;;;15.24;76.08;102284.88;5081255;28;20048;-67
2023/06/01 04:25:23;;;;;;;20.50;13.07;;;14.90;99.90;;;15.26;76.29;102276.88;5098311;28;20053;-66
2023/06/01 04:27:54;;;;;;;19.10;13.82;;;14.90;99.90;;;15.16;76.12;102273.31;5080076;28;20138;-66
2023/06/01 04:30:25;;;;;;;20.92;13.35;;;14.90;99.90;;;15.14;76.12;102280.44;5092054;28;20063;-66
2023/06/01 04:32:55;;;;;;;19.33;13.27;;;14.80;99.90;;;15.10;76.26;102283.97;5082593;28;20051;-67
2023/06/01 04:35:23;;;;;;;19.50;13.27;;;14.80;99.90;;;15.10;76.36;102286.66;5080131;28;20102;-66
2023/06/01 04:37:53;;;;;;;23.08;14.50;;;14.80;99.90;;;15.14;76.53;102274.19;5081222;28;20036;-67
2023/06/01 04:40:22;;;;;;;22.50;14.38;;;14.80;99.90;;;15.19;76.68;102294.63;5064683;28;20134;-67
2023/06/01 04:42:55;;;;;;;20.83;14.43;;;14.90;99.90;;;15.21;76.79;102298.19;5081727;28;20051;-67
2023/06/01 04:45:25;;;;;;;23.80;13.70;;;14.90;99.90;;;15.17;76.81;102291.09;5059558;28;20303;-67
2023/06/01 04:47:57;;;;;;;22.27;13.30;;;14.80;99.90;;;15.17;76.59;102292.88;5091906;28;20139;-66
2023/06/01 04:50:34;;;;;;;22.35;14.00;;;14.90;99.90;;;15.16;76.64;102293.75;5062858;28;20144;-66
2023/06/01 04:53:02;;;;;;;21.33;13.75;;;14.90;99.90;;;15.28;76.52;102296.41;5097317;28;20072;-66
2023/06/01 04:55:32;;;;;;;21.38;12.70;;;15.00;99.90;;;15.37;76.59;102294.63;5098365;28;20048;-66
2023/06/01 04:58:01;;;;;;;22.23;12.52;;;15.10;99.90;;;15.41;76.32;102289.31;5096506;28;20125;-66
2023/06/01 05:00:30;;;;;;;16.80;12.05;;;15.10;99.90;;;15.33;75.71;102283.94;5099727;28;20047;-67
2023/06/01 05:02:58;;;;;;;16.00;11.55;;;15.00;99.90;;;15.44;75.69;102292.00;5076604;28;20440;-66
2023/06/01 05:05:27;;;;;;;22.25;11.45;;;15.10;99.90;;;15.44;75.58;102290.22;5083469;28;20079;-67
2023/06/01 05:07:56;;;;;;;20.25;11.38;;;15.10;99.90;;;15.49;75.58;102298.19;5079612;28;20055;-67
2023/06/01 05:10:25;;;;;;;19.20;11.52;;;15.20;99.90;;;15.38;75.31;102275.09;5081362;28;20138;-67
2023/06/01 05:12:54;;;;;;;15.85;12.13;;;15.20;99.90;;;15.46;75.19;102282.22;5081910;28;20114;-67
2023/06/01 05:15:23;;;;;;;22.63;11.98;;;15.20;99.90;;;15.56;75.25;102300.88;5080347;28;20043;-67
2023/06/01 05:17:52;;;;;;;26.48;11.75;;;15.20;99.90;;;15.64;75.12;102298.19;5065312;28;20143;-67
2023/06/01 05:20:21;;;;;;;20.27;12.35;;;15.30;99.90;;;15.72;74.82;102297.25;5079047;28;20044;-67
2023/06/01 05:22:55;;;;;;;19.02;12.55;;;15.30;99.90;;;15.73;74.71;102288.38;5059423;28;20053;-67
2023/06/01 05:25:24;;;;;;;24.73;13.35;;;15.40;99.90;;;15.58;74.21;102287.53;5082333;28;20480;-66
2023/06/01 05:27:54;;;;;;;22.40;13.63;;;15.30;99.90;;;15.51;74.19;102283.06;5100628;28;20048;-67
2023/06/01 05:30:23;;;;;;;19.63;13.60;;;15.20;99.90;;;15.51;74.64;102277.75;5118332;27;20044;-67
2023/06/01 05:32:52;;;;;;;22.45;13.82;;;15.20;99.90;;;15.65;74.83;102286.59;5085992;28;20072;-67
2023/06/01 05:35:22;;;;;;;22.15;14.15;;;15.30;99.90;;;15.69;74.47;102285.72;5083215;28;20544;-66
2023/06/01 05:37:52;;;;;;;19.45;13.02;;;15.30;99.90;;;15.66;74.60;102294.59;5085683;28;20085;-66
2023/06/01 05:40:21;;;;;;;20.48;13.80;;;15.30;99.90;;;15.72;74.89;102291.03;5095136;28;20059;-66
2023/06/01 05:42:50;;;;;;;20.58;14.00;;;15.40;99.90;;;15.81;74.64;102296.34;5102499;28;20072;-66
2023/06/01 05:45:20;;;;;;;19.13;13.15;;;15.50;99.90;;;15.76;74.63;102287.47;5084010;28;20041;-66
2023/06/01 05:47:48;;;;;;;17.58;12.98;;;15.50;99.90;;;15.86;74.08;102303.44;5084287;28;20054;-67
2023/06/01 05:50:17;;;;;;;24.90;12.73;;;15.50;99.90;;;15.80;73.83;102299.91;5084237;28;20060;-66
2023/06/01 05:52:46;;;;;;;21.10;12.60;;;15.50;99.90;;;15.71;74.02;102294.59;5083707;28;20059;-66
2023/06/01 05:55:15;;;;;;;19.50;13.43;;;15.50;99.90;;;15.85;73.93;102298.13;5101607;28;20063;-67
2023/06/01 05:57:45;;;;;;;18.60;12.45;;;15.50;99.90;;;15.88;74.30;102300.78;5083655;28;20040;-67
2023/06/01 06:00:15;;;;;;;20.45;12.75;;;15.50;99.90;;;15.98;74.07;102300.75;5061517;28;20052;-66
2023/06/01 06:02:45;;;;;;;20.27;12.88;;;15.60;99.90;;;15.90;73.39;102286.53;5080229;28;20529;-67
2023/06/01 06:05:15;;;;;;;23.40;13.18;;;15.60;99.90;;;15.87;73.33;102293.66;5085711;28;20052;-66
2023/06/01 06:07:44;;;;;;;24.48;13.85;;;15.60;99.90;;;15.81;73.78;102294.59;5084622;28;20056;-66
2023/06/01 06:10:13;;;;;;;22.92;14.40;;;15.50;99.90;;;15.95;73.94;102292.72;5084739;28;20075;-67
2023/06/01 06:12:41;;;;;;;21.80;13.88;;;15.60;99.90;;;15.91;74.20;102287.44;5083662;28;20048;-67
2023/06/01 06:15:11;;;;;;;24.15;14.45;;;15.60;99.90;;;16.02;73.87;102293.63;5083971;28;20127;-66
2023/06/01 06:17:39;;;;;;;27.95;15.20;;;15.70;99.90;;;16.09;74.01;102298.03;5084580;28;20437;-67
2023/06/01 06:20:11;;;;;;;20.08;14.63;;;15.70;99.90;;;16.18;74.05;102290.00;5082947;28;20130;-67
2023/06/01 06:22:40;;;;;;;24.98;15.30;;;15.90;99.90;;;16.31;73.71;102293.47;5118647;27;20515;-67
2023/06/01 06:25:11;;;;;;;23.58;15.70;;;15.90;99.90;;;16.38;73.62;102285.41;5083210;28;20056;-67
2023/06/01 06:27:40;;;;;;;28.40;14.73;;;16.00;99.90;;;16.39;72.96;102279.19;5083488;28;20539;-66
2023/06/01 06:30:09;;;;;;;24.15;15.00;;;16.10;99.90;;;16.41;72.99;102288.09;5084636;28;20105;-67
2023/06/01 06:32:38;;;;;;;26.77;15.32;;;16.10;99.90;;;16.39;72.93;102276.53;5083354;28;20564;-67
2023/06/01 06:35:07;;;;;;;24.77;15.45;;;16.10;99.90;;;16.57;72.62;102292.47;5101054;28;20083;-67
2023/06/01 06:37:37;;;;;;;28.65;15.38;;;16.20;99.90;;;16.68;72.64;102292.41;5081692;28;20078;-67
2023/06/01 06:40:07;;;;;;;24.88;16.42;;;16.30;99.90;;;16.63;71.95;102297.78;5078663;28;20059;-67
2023/06/01 06:42:36;;;;;;;23.58;16.13;;;16.30;99.90;;;16.61;71.70;102293.31;5085403;28;20101;-66
2023/06/01 06:45:05;;;;;;;23.48;16.23;;;16.30;99.90;;;15.95;71.45;102187.78;5083211;28;20109;-67
2023/06/01 06:47:34;;;;;;;24.02;15.85;;;16.30;99.90;;;16.64;71.83;102301.34;5084363;28;20123;-66
2023/06/01 06:50:02;;;;;;;27.63;16.85;;;16.30;99.90;;;16.75;71.83;102302.13;5083802;28;20079;-66
2023/06/01 06:52:31;;;;;;;21.25;14.60;;;16.40;99.90;;;16.82;71.42;102302.09;5083749;28;20086;-66
2023/06/01 06:55:00;;;;;;;24.33;15.40;;;16.50;99.90;;;16.61;70.43;102299.56;5083656;28;20067;-66
2023/06/01 06:57:29;;;;;;;25.00;14.80;;;16.40;99.90;;;16.63;70.85;102312.91;5082427;28;20127;-66
2023/06/01 06:59:58;;;;;;;22.67;14.68;;;16.30;99.90;;;16.74;70.70;102305.72;5085577;28;20093;-66
2023/06/01 07:02:27;;;;;;;21.75;14.55;;;16.40;99.90;;;16.74;70.65;102311.06;5077209;28;20102;-66
2023/06/01 07:04:56;;;;;;;21.10;14.18;;;16.40;99.90;;;16.80;70.47;102309.22;5085023;28;20471;-66
2023/06/01 07:07:24;;;;;;;21.90;13.82;;;16.40;99.90;;;16.72;70.75;102316.44;5098464;28;20520;-66
2023/06/01 07:09:53;;;;;;;22.38;13.82;;;16.40;99.90;;;16.75;70.65;102319.06;5084101;28;20548;-66
2023/06/01 07:12:23;;;;;;;22.08;14.52;;;16.50;99.90;;;16.73;70.49;102314.63;5083368;28;20484;-66
2023/06/01 07:14:51;;;;;;;21.70;13.67;;;16.40;99.90;;;16.72;70.18;102324.44;5081629;28;20052;-66
2023/06/01 07:17:21;;;;;;;17.67;14.00;;;16.40;99.90;;;16.71;70.00;102322.66;5100069;28;20048;-66
2023/06/01 07:19:49;;;;;;;21.58;15.38;;;16.40;99.90;;;16.74;70.06;102324.44;5081848;28;20440;-66
2023/06/01 07:22:17;;;;;;;23.30;14.63;;;16.40;99.90;;;16.72;70.10;102319.09;5085129;28;20044;-66
2023/06/01 07:24:46;;;;;;;22.25;14.13;;;16.40;99.90;;;16.72;69.95;102318.22;5077480;28;20049;-66
2023/06/01 07:27:14;;;;;;;18.90;13.13;;;16.50;99.90;;;16.80;69.92;102324.41;5084522;28;20048;-66
2023/06/01 07:29:44;;;;;;;18.55;13.93;;;16.50;99.90;;;16.83;69.52;102317.25;5097655;28;20454;-66
2023/06/01 07:32:13;;;;;;;19.52;13.18;;;16.60;99.90;;;16.77;69.41;102300.34;5083691;28;20044;-66
2023/06/01 07:34:42;;;;;;;22.73;13.68;;;16.60;99.90;;;16.90;68.96;102312.72;5083173;28;20040;-66
2023/06/01 07:37:10;;;;;;;20.95;13.52;;;16.60;99.90;;;16.98;69.52;102316.22;5082955;28;20047;-66
2023/06/01 07:39:45;;;;;;;22.38;13.52;;;16.60;99.90;;;17.09;69.45;102317.91;5084609;28;20093;-66
2023/06/01 07:42:14;;;;;;;19.05;13.55;;;16.70;99.90;;;16.30;69.51;102305.94;5076961;28;20090;-66
2023/06/01 07:44:44;;;;;;;21.58;13.90;;;16.30;99.90;;;16.45;70.02;102289.84;5078010;28;20081;-66
2023/06/01 07:47:12;;;;;;;21.48;13.70;;;16.30;99.90;;;16.71;70.65;102289.69;5084198;28;20109;-66
2023/06/01 07:49:41;;;;;;;22.00;13.18;;;16.50;99.90;;;17.02;69.75;102312.63;5081889;28;20074;-66
2023/06/01 07:52:09;;;;;;;21.92;12.90;;;16.70;99.90;;;17.21;69.03;102318.75;5082952;28;20043;-66
2023/06/01 07:54:38;;;;;;;20.05;12.45;;;16.90;99.90;;;17.38;68.75;102324.81;5082866;28;20119;-66
2023/06/01 07:57:07;;;;;;;22.27;13.38;;;17.00;99.90;;;17.43;67.96;102320.31;5082196;28;20079;-66
2023/06/01 07:59:36;;;;;;;20.90;12.30;;;17.20;99.90;;;17.50;67.99;102322.09;5083755;28;20040;-66
2023/06/01 08:02:07;;;;;;;21.65;12.02;;;17.20;99.90;;;17.62;68.04;102328.19;5080138;28;20083;-66
2023/06/01 08:04:35;;;;;;;19.92;12.95;;;17.30;99.90;;;17.60;67.26;102313.03;5076890;28;20063;-66
2023/06/01 08:07:06;;;;;;;22.00;12.25;;;17.40;99.90;;;17.78;66.41;102327.13;5084151;28;20047;-66
2023/06/01 08:09:35;;;;;;;17.83;11.95;;;17.50;99.90;;;17.90;65.54;102328.78;5097352;28;20053;-66
2023/06/01 08:12:03;;;;;;;15.80;11.38;;;17.60;99.90;;;18.03;65.09;102320.59;5083382;28;20072;-66
2023/06/01 08:14:33;;;;;;;15.63;11.02;;;17.70;99.90;;;18.08;65.14;102327.69;5082379;28;20493;-67
2023/06/01 08:17:02;;;;;;;19.60;11.35;;;17.80;99.90;;;18.26;65.30;102312.25;5081729;28;20050;-66
2023/06/01 08:19:33;;;;;;;17.23;10.70;;;17.90;99.90;;;18.45;64.92;102323.66;5083392;28;20043;-67
2023/06/01 08:22:04;;;;;;;16.20;10.95;;;18.10;99.90;;;18.62;64.82;102318.97;5080664;28;20102;-67
2023/06/01 08:24:33;;;;;;;16.65;11.43;;;18.30;99.90;;;18.67;63.70;102309.94;5077704;28;20045;-67
2023/06/01 08:27:01;;;;;;;20.42;10.40;;;18.40;99.90;;;18.78;63.09;102304.41;5083578;28;20047;-67
2023/06/01 08:29:30;;;;;;;15.75;10.55;;;18.50;99.90;;;18.90;63.16;102315.84;5097244;28;20139;-67
2023/06/01 08:32:10;;;;;;;20.13;11.55;;;18.60;99.90;;;18.91;61.46;102314.06;5080987;28;20123;-67
2023/06/01 08:34:40;;;;;;;15.25;10.27;;;18.70;99.90;;;19.00;61.61;102319.28;5084048;28;20040;-67
2023/06/01 08:37:08;;;;;;;15.98;10.15;;;18.70;99.90;;;19.19;61.88;102318.06;5051537;28;20037;-67
2023/06/01 08:39:37;;;;;;;21.35;11.00;;;18.90;99.90;;;19.46;61.72;102314.03;5083448;28;20147;-67
2023/06/01 08:42:09;;;;;;;18.00;11.32;;;19.10;99.90;;;19.49;60.51;102316.69;5081283;28;20040;-67
2023/06/01 08:44:41;;;;;;;15.82;10.88;;;19.30;99.90;;;19.44;59.34;102318.53;5082019;28;20051;-67
2023/06/01 08:47:10;;;;;;;14.37;10.80;;;19.20;99.90;;;19.45;60.56;102323.03;5082844;28;20127;-67
2023/06/01 08:49:43;;;;;;;14.40;10.13;;;19.20;99.90;;;19.47;60.57;102299.72;5081273;28;20052;-67
2023/06/01 08:52:14;;;;;;;17.48;9.85;;;19.20;99.90;;;19.62;59.79;102307.47;5076701;28;20048;-66
2023/06/01 08:54:42;;;;;;;15.93;10.65;;;19.40;99.90;;;19.56;59.39;102316.53;5082065;28;20055;-67
2023/06/01 08:57:12;;;;;;;14.18;10.30;;;19.30;99.90;;;19.59;59.62;102303.06;5097138;28;20144;-67
2023/06/01 08:59:41;;;;;;;14.68;9.65;;;19.30;99.90;;;19.83;59.92;102311.56;5082220;28;20040;-67
2023/06/01 09:02:10;;;;;;;15.07;9.38;;;19.50;99.90;;;19.84;58.52;102311.50;5086125;28;20060;-67
2023/06/01 09:04:44;;;;;;;18.13;9.60;;;19.60;99.90;;;19.98;58.44;102308.56;5100598;28;20052;-67
2023/06/01 09:07:14;;;;;;;17.98;9.75;;;19.70;99.90;;;19.99;58.32;102294.22;5080009;28;20047;-68
2023/06/01 09:09:43;;;;;;;13.90;9.90;;;19.80;99.90;;;20.20;57.37;102308.13;5081010;28;20059;-69
2023/06/01 09:12:25;;;;;;;12.13;9.77;;;19.90;99.90;;;19.97;57.42;102310.38;5087116;28;20048;-67
2023/06/01 09:15:11;;;;;;;14.85;10.43;;;19.80;99.90;;;20.20;59.08;102310.81;5087235;28;20046;-67
2023/06/01 09:17:41;;;;;;;15.23;9.80;;;19.80;99.90;;;20.29;58.83;102304.34;5083823;28;20078;-67
2023/06/01 09:20:15;;;;;;;12.07;8.70;;;19.90;99.90;;;20.42;58.03;102306.75;5084904;28;20390;-67
2023/06/01 09:22:45;;;;;;;16.08;9.40;;;20.10;99.90;;;20.57;57.95;102298.34;5087435;28;20052;-67
2023/06/01 09:25:15;;;;;;;12.98;9.40;;;20.30;99.90;;;20.54;57.09;102303.78;5080213;28;20123;-67
2023/06/01 09:27:48;;;;;;;;;;;20.30;99.90;;;20.74;56.97;102299.75;5087084;28;20051;-67
2023/06/01 09:30:19;;;;;;;12.43;8.60;;;20.40;99.90;;;20.01;56.68;102287.91;5085632;28;19969;-67
2023/06/01 09:32:50;;;;;;;16.23;8.82;;;20.00;99.90;;;19.98;57.29;102287.97;5083274;28;20054;-67
2023/06/01 09:35:39;;;;;;;21.00;9.52;;;19.80;99.90;;;19.74;57.76;102281.28;5087073;28;20071;-67
2023/06/01 09:38:08;;;;;;;14.27;9.38;;;19.50;99.90;;;19.87;58.07;102289.97;5084623;28;20083;-67
2023/06/01 09:40:38;;;;;;;16.75;9.98;;;19.50;99.90;;;20.23;58.42;102282.97;5084163;28;20051;-67
2023/06/01 09:43:21;;;;;;;16.00;8.82;;;19.80;99.90;;;20.40;56.86;102296.97;5086899;28;20131;-67
2023/06/01 09:46:06;;;;;;;16.05;9.32;;;20.10;99.90;;;20.28;58.53;102283.78;5083422;28;20040;-67
2023/06/01 09:48:36;;;;;;;15.60;9.30;;;20.00;99.90;;;20.59;58.03;102280.38;5081024;28;20454;-67
2023/06/01 09:51:21;;;;;;;18.77;8.80;;;20.20;99.90;;;20.84;57.24;102287.84;5084674;28;20075;-67
2023/06/01 09:53:50;;;;;;;18.05;10.38;;;20.50;99.90;;;20.42;56.52;102258.34;5079153;28;20275;-67
2023/06/01 09:56:18;;;;;;;12.48;9.85;;;20.30;99.90;;;20.33;57.69;102279.19;5079727;28;20485;-67
2023/06/01 09:58:49;;;;;;;13.63;9.27;;;20.00;99.90;;;20.59;56.59;102279.50;5086268;28;20048;-67
2023/06/01 10:01:18;;;;;;;14.00;9.70;;;20.30;99.90;;;20.79;56.27;102279.88;5084281;28;20045;-67
2023/06/01 10:03:53;;;;;;;18.00;9.40;;;20.50;99.90;;;21.05;55.85;102281.97;5084977;28;20059;-67
2023/06/01 10:06:23;;;;;;;17.77;8.50;;;20.70;99.90;;;21.33;55.39;102280.38;5085880;28;20074;-67
2023/06/01 10:08:53;;;;;;;13.02;9.15;;;21.00;99.90;;;21.25;53.41;102285.06;5078793;28;20049;-67
2023/06/01 10:11:21;;;;;;;16.60;8.48;;;21.00;99.90;;;21.34;54.81;102284.81;5079220;28;20036;-67
2023/06/01 10:13:50;;;;;;;14.25;9.25;;;21.00;99.90;;;21.64;54.99;102286.69;5085974;28;20094;-67